sensor_id;sensor_type;location;lat;lon;timestamp;temperature;humidity
16863;DHT22;52193;48.216;-1.698;2023-03-03T00:01:10;11.30;83.80
16863;DHT22;52193;48.216;-1.698;2023-03-03T00:03:37;11.40;84.10
16863;DHT22;52193;48.216;-1.698;2023-03-03T00:06:08;11.40;84.00
16863;DHT22;52193;48.216;-1.698;2023-03-03T00:08:37;11.40;84.10
16863;DHT22;52193;48.216;-1.698;2023-03-03T00:11:05;11.30;84.00
16863;DHT22;52193;48.216;-1.698;2023-03-03T00:13:39;11.40;84.00
16863;DHT22;52193;48.216;-1.698;2023-03-03T00:16:16;11.30;83.90
16863;DHT22;52193;48.216;-1.698;2023-03-03T00:18:47;11.30;84.10
16863;DHT22;52193;48.216;-1.698;2023-03-03T00:21:26;11.40;83.90
16863;DHT22;52193;48.216;-1.698;2023-03-03T00:24:04;11.30;83.90
16863;DHT22;52193;48.216;-1.698;2023-03-03T00:26:37;11.20;83.90
16863;DHT22;52193;48.216;-1.698;2023-03-03T00:29:27;11.30;84.00
16863;DHT22;52193;48.216;-1.698;2023-03-03T00:32:01;11.30;84.00
16863;DHT22;52193;48.216;-1.698;2023-03-03T00:34:35;11.20;83.90
16863;DHT22;52193;48.216;-1.698;2023-03-03T00:37:02;11.20;84.00
16863;DHT22;52193;48.216;-1.698;2023-03-03T00:39:34;11.20;84.00
16863;DHT22;52193;48.216;-1.698;2023-03-03T00:42:09;11.20;84.10
16863;DHT22;52193;48.216;-1.698;2023-03-03T00:44:40;11.20;84.10
16863;DHT22;52193;48.216;-1.698;2023-03-03T00:47:23;11.20;84.00
16863;DHT22;52193;48.216;-1.698;2023-03-03T00:49:51;11.20;84.10
16863;DHT22;52193;48.216;-1.698;2023-03-03T00:52:19;11.10;84.00
16863;DHT22;52193;48.216;-1.698;2023-03-03T00:54:48;11.10;84.10
16863;DHT22;52193;48.216;-1.698;2023-03-03T00:57:15;11.10;84.20
16863;DHT22;52193;48.216;-1.698;2023-03-03T00:59:42;11.10;84.10
16863;DHT22;52193;48.216;-1.698;2023-03-03T01:02:08;11.10;84.10
16863;DHT22;52193;48.216;-1.698;2023-03-03T01:04:35;11.00;84.10
16863;DHT22;52193;48.216;-1.698;2023-03-03T01:07:02;11.00;84.20
16863;DHT22;52193;48.216;-1.698;2023-03-03T01:09:29;11.00;84.20
16863;DHT22;52193;48.216;-1.698;2023-03-03T01:11:58;11.00;84.30
16863;DHT22;52193;48.216;-1.698;2023-03-03T01:14:25;11.00;84.20
16863;DHT22;52193;48.216;-1.698;2023-03-03T01:16:52;10.90;84.30
16863;DHT22;52193;48.216;-1.698;2023-03-03T01:19:19;10.90;84.30
16863;DHT22;52193;48.216;-1.698;2023-03-03T01:21:46;10.90;84.20
16863;DHT22;52193;48.216;-1.698;2023-03-03T01:24:13;10.90;84.30
16863;DHT22;52193;48.216;-1.698;2023-03-03T01:26:40;10.90;84.30
16863;DHT22;52193;48.216;-1.698;2023-03-03T01:29:08;10.80;84.20
16863;DHT22;52193;48.216;-1.698;2023-03-03T01:31:35;10.80;84.40
16863;DHT22;52193;48.216;-1.698;2023-03-03T01:34:02;10.70;84.40
16863;DHT22;52193;48.216;-1.698;2023-03-03T01:36:30;10.70;84.50
16863;DHT22;52193;48.216;-1.698;2023-03-03T01:38:56;10.70;84.60
16863;DHT22;52193;48.216;-1.698;2023-03-03T01:41:26;10.60;84.60
16863;DHT22;52193;48.216;-1.698;2023-03-03T01:43:54;10.60;84.60
16863;DHT22;52193;48.216;-1.698;2023-03-03T01:46:33;10.70;84.70
16863;DHT22;52193;48.216;-1.698;2023-03-03T01:49:06;10.60;84.80
16863;DHT22;52193;48.216;-1.698;2023-03-03T01:51:35;10.60;84.70
16863;DHT22;52193;48.216;-1.698;2023-03-03T01:54:05;10.60;84.80
16863;DHT22;52193;48.216;-1.698;2023-03-03T01:56:35;10.50;84.70
16863;DHT22;52193;48.216;-1.698;2023-03-03T01:59:05;10.50;84.70
16863;DHT22;52193;48.216;-1.698;2023-03-03T02:01:34;10.50;84.80
16863;DHT22;52193;48.216;-1.698;2023-03-03T02:04:01;10.40;84.80
16863;DHT22;52193;48.216;-1.698;2023-03-03T02:06:31;10.40;84.80
16863;DHT22;52193;48.216;-1.698;2023-03-03T02:09:02;10.40;85.10
16863;DHT22;52193;48.216;-1.698;2023-03-03T02:11:31;10.40;85.10
16863;DHT22;52193;48.216;-1.698;2023-03-03T02:14:00;10.40;85.00
16863;DHT22;52193;48.216;-1.698;2023-03-03T02:16:27;10.40;85.00
16863;DHT22;52193;48.216;-1.698;2023-03-03T02:18:55;10.40;85.00
16863;DHT22;52193;48.216;-1.698;2023-03-03T02:21:24;10.40;85.00
16863;DHT22;52193;48.216;-1.698;2023-03-03T02:23:57;10.30;85.00
16863;DHT22;52193;48.216;-1.698;2023-03-03T02:26:27;10.30;85.20
16863;DHT22;52193;48.216;-1.698;2023-03-03T02:28:54;10.30;85.30
16863;DHT22;52193;48.216;-1.698;2023-03-03T02:31:24;10.30;85.40
16863;DHT22;52193;48.216;-1.698;2023-03-03T02:33:53;10.30;85.40
16863;DHT22;52193;48.216;-1.698;2023-03-03T02:36:21;10.30;85.40
16863;DHT22;52193;48.216;-1.698;2023-03-03T02:38:52;10.30;85.30
16863;DHT22;52193;48.216;-1.698;2023-03-03T02:41:29;10.30;85.30
16863;DHT22;52193;48.216;-1.698;2023-03-03T02:44:00;10.30;85.40
16863;DHT22;52193;48.216;-1.698;2023-03-03T02:46:29;10.30;85.40
16863;DHT22;52193;48.216;-1.698;2023-03-03T02:48:57;10.20;85.50
16863;DHT22;52193;48.216;-1.698;2023-03-03T02:51:24;10.20;85.50
16863;DHT22;52193;48.216;-1.698;2023-03-03T02:53:51;10.20;85.60
16863;DHT22;52193;48.216;-1.698;2023-03-03T02:56:18;10.20;85.60
16863;DHT22;52193;48.216;-1.698;2023-03-03T02:58:46;10.20;85.80
16863;DHT22;52193;48.216;-1.698;2023-03-03T03:01:13;10.20;85.80
16863;DHT22;52193;48.216;-1.698;2023-03-03T03:03:40;10.20;85.90
16863;DHT22;52193;48.216;-1.698;2023-03-03T03:06:07;10.20;85.90
16863;DHT22;52193;48.216;-1.698;2023-03-03T03:08:34;10.30;85.90
16863;DHT22;52193;48.216;-1.698;2023-03-03T03:11:02;10.20;85.80
16863;DHT22;52193;48.216;-1.698;2023-03-03T03:13:31;10.30;85.90
16863;DHT22;52193;48.216;-1.698;2023-03-03T03:15:59;10.30;85.80
16863;DHT22;52193;48.216;-1.698;2023-03-03T03:18:27;10.30;85.80
16863;DHT22;52193;48.216;-1.698;2023-03-03T03:20:54;10.30;85.90
16863;DHT22;52193;48.216;-1.698;2023-03-03T03:23:21;10.30;85.80
16863;DHT22;52193;48.216;-1.698;2023-03-03T03:25:48;10.30;85.90
16863;DHT22;52193;48.216;-1.698;2023-03-03T03:28:16;10.30;86.00
16863;DHT22;52193;48.216;-1.698;2023-03-03T03:30:43;10.30;86.00
16863;DHT22;52193;48.216;-1.698;2023-03-03T03:33:12;10.30;85.80
16863;DHT22;52193;48.216;-1.698;2023-03-03T03:35:39;10.20;85.90
16863;DHT22;52193;48.216;-1.698;2023-03-03T03:38:10;10.20;85.80
16863;DHT22;52193;48.216;-1.698;2023-03-03T03:40:36;10.20;85.80
16863;DHT22;52193;48.216;-1.698;2023-03-03T03:43:03;10.20;85.80
16863;DHT22;52193;48.216;-1.698;2023-03-03T03:45:30;10.20;85.80
16863;DHT22;52193;48.216;-1.698;2023-03-03T03:47:57;10.20;85.90
16863;DHT22;52193;48.216;-1.698;2023-03-03T03:50:25;10.20;85.80
16863;DHT22;52193;48.216;-1.698;2023-03-03T03:52:52;10.20;85.90
16863;DHT22;52193;48.216;-1.698;2023-03-03T03:55:19;10.10;85.60
16863;DHT22;52193;48.216;-1.698;2023-03-03T03:57:47;10.10;85.70
16863;DHT22;52193;48.216;-1.698;2023-03-03T04:00:15;10.00;85.70
16863;DHT22;52193;48.216;-1.698;2023-03-03T04:02:42;10.10;85.90
16863;DHT22;52193;48.216;-1.698;2023-03-03T04:05:09;10.10;85.60
16863;DHT22;52193;48.216;-1.698;2023-03-03T04:07:37;10.00;85.80
16863;DHT22;52193;48.216;-1.698;2023-03-03T04:10:05;9.90;86.80
16863;DHT22;52193;48.216;-1.698;2023-03-03T04:12:32;9.90;87.10
16863;DHT22;52193;48.216;-1.698;2023-03-03T04:15:03;9.90;87.10
16863;DHT22;52193;48.216;-1.698;2023-03-03T04:17:31;9.90;87.10
16863;DHT22;52193;48.216;-1.698;2023-03-03T04:19:57;9.80;87.20
16863;DHT22;52193;48.216;-1.698;2023-03-03T04:22:25;9.80;87.40
16863;DHT22;52193;48.216;-1.698;2023-03-03T04:24:54;9.70;87.50
16863;DHT22;52193;48.216;-1.698;2023-03-03T04:27:21;9.60;87.50
16863;DHT22;52193;48.216;-1.698;2023-03-03T04:29:48;9.70;87.90
16863;DHT22;52193;48.216;-1.698;2023-03-03T04:32:15;9.70;87.90
16863;DHT22;52193;48.216;-1.698;2023-03-03T04:34:43;9.70;87.90
16863;DHT22;52193;48.216;-1.698;2023-03-03T04:37:10;9.60;87.90
16863;DHT22;52193;48.216;-1.698;2023-03-03T04:39:37;9.60;88.00
16863;DHT22;52193;48.216;-1.698;2023-03-03T04:42:05;9.60;88.20
16863;DHT22;52193;48.216;-1.698;2023-03-03T04:44:32;9.50;88.10
16863;DHT22;52193;48.216;-1.698;2023-03-03T04:46:59;9.50;88.20
16863;DHT22;52193;48.216;-1.698;2023-03-03T04:49:26;9.60;88.40
16863;DHT22;52193;48.216;-1.698;2023-03-03T04:51:53;9.60;88.40
16863;DHT22;52193;48.216;-1.698;2023-03-03T04:54:20;9.60;88.30
16863;DHT22;52193;48.216;-1.698;2023-03-03T04:56:46;9.50;88.30
16863;DHT22;52193;48.216;-1.698;2023-03-03T04:59:15;9.50;88.50
16863;DHT22;52193;48.216;-1.698;2023-03-03T05:01:42;9.50;88.40
16863;DHT22;52193;48.216;-1.698;2023-03-03T05:04:11;9.40;88.40
16863;DHT22;52193;48.216;-1.698;2023-03-03T05:06:37;9.40;88.60
16863;DHT22;52193;48.216;-1.698;2023-03-03T05:09:05;9.40;88.60
16863;DHT22;52193;48.216;-1.698;2023-03-03T05:11:32;9.30;88.70
16863;DHT22;52193;48.216;-1.698;2023-03-03T05:13:59;9.30;88.80
16863;DHT22;52193;48.216;-1.698;2023-03-03T05:16:29;9.30;88.90
16863;DHT22;52193;48.216;-1.698;2023-03-03T05:18:56;9.30;88.90
16863;DHT22;52193;48.216;-1.698;2023-03-03T05:21:22;9.30;89.00
16863;DHT22;52193;48.216;-1.698;2023-03-03T05:23:49;9.30;89.10
16863;DHT22;52193;48.216;-1.698;2023-03-03T05:26:17;9.30;89.20
16863;DHT22;52193;48.216;-1.698;2023-03-03T05:28:44;9.30;89.10
16863;DHT22;52193;48.216;-1.698;2023-03-03T05:31:11;9.30;89.10
16863;DHT22;52193;48.216;-1.698;2023-03-03T05:33:39;9.30;89.10
16863;DHT22;52193;48.216;-1.698;2023-03-03T05:36:07;9.20;89.30
16863;DHT22;52193;48.216;-1.698;2023-03-03T05:38:33;9.10;89.30
16863;DHT22;52193;48.216;-1.698;2023-03-03T05:41:00;9.20;89.60
16863;DHT22;52193;48.216;-1.698;2023-03-03T05:43:27;9.20;89.40
16863;DHT22;52193;48.216;-1.698;2023-03-03T05:45:55;9.20;89.40
16863;DHT22;52193;48.216;-1.698;2023-03-03T05:48:22;9.20;89.60
16863;DHT22;52193;48.216;-1.698;2023-03-03T05:50:50;9.20;89.60
16863;DHT22;52193;48.216;-1.698;2023-03-03T05:53:17;9.10;89.40
16863;DHT22;52193;48.216;-1.698;2023-03-03T05:55:44;9.20;89.60
16863;DHT22;52193;48.216;-1.698;2023-03-03T05:58:11;9.10;89.70
16863;DHT22;52193;48.216;-1.698;2023-03-03T06:00:38;9.20;89.90
16863;DHT22;52193;48.216;-1.698;2023-03-03T06:03:05;9.10;89.60
16863;DHT22;52193;48.216;-1.698;2023-03-03T06:05:32;9.10;89.90
16863;DHT22;52193;48.216;-1.698;2023-03-03T06:08:00;9.10;89.80
16863;DHT22;52193;48.216;-1.698;2023-03-03T06:10:27;9.10;89.80
16863;DHT22;52193;48.216;-1.698;2023-03-03T06:12:54;9.20;89.80
16863;DHT22;52193;48.216;-1.698;2023-03-03T06:15:22;9.10;89.80
16863;DHT22;52193;48.216;-1.698;2023-03-03T06:17:49;9.20;89.80
16863;DHT22;52193;48.216;-1.698;2023-03-03T06:20:16;9.10;89.80
16863;DHT22;52193;48.216;-1.698;2023-03-03T06:22:43;9.20;90.00
16863;DHT22;52193;48.216;-1.698;2023-03-03T06:25:11;9.20;89.70
16863;DHT22;52193;48.216;-1.698;2023-03-03T06:27:38;9.20;89.90
16863;DHT22;52193;48.216;-1.698;2023-03-03T06:30:06;9.20;89.90
16863;DHT22;52193;48.216;-1.698;2023-03-03T06:32:33;9.30;89.80
16863;DHT22;52193;48.216;-1.698;2023-03-03T06:35:00;9.20;89.80
16863;DHT22;52193;48.216;-1.698;2023-03-03T06:37:27;9.20;89.80
16863;DHT22;52193;48.216;-1.698;2023-03-03T06:39:54;9.10;89.70
16863;DHT22;52193;48.216;-1.698;2023-03-03T06:42:22;9.10;89.80
16863;DHT22;52193;48.216;-1.698;2023-03-03T06:44:49;9.20;89.90
16863;DHT22;52193;48.216;-1.698;2023-03-03T06:47:16;9.10;89.80
16863;DHT22;52193;48.216;-1.698;2023-03-03T06:49:43;9.10;89.90
16863;DHT22;52193;48.216;-1.698;2023-03-03T06:52:12;9.10;89.90
16863;DHT22;52193;48.216;-1.698;2023-03-03T06:54:39;9.10;90.00
16863;DHT22;52193;48.216;-1.698;2023-03-03T06:57:15;9.10;90.00
16863;DHT22;52193;48.216;-1.698;2023-03-03T06:59:44;9.10;90.10
16863;DHT22;52193;48.216;-1.698;2023-03-03T07:02:15;9.10;90.00
16863;DHT22;52193;48.216;-1.698;2023-03-03T07:04:43;9.10;90.00
16863;DHT22;52193;48.216;-1.698;2023-03-03T07:07:16;9.10;89.90
16863;DHT22;52193;48.216;-1.698;2023-03-03T07:09:46;9.20;90.00
16863;DHT22;52193;48.216;-1.698;2023-03-03T07:12:15;9.20;89.80
16863;DHT22;52193;48.216;-1.698;2023-03-03T07:14:45;9.20;90.00
16863;DHT22;52193;48.216;-1.698;2023-03-03T07:17:16;9.20;89.80
16863;DHT22;52193;48.216;-1.698;2023-03-03T07:19:44;9.20;89.80
16863;DHT22;52193;48.216;-1.698;2023-03-03T07:22:14;9.20;89.80
16863;DHT22;52193;48.216;-1.698;2023-03-03T07:24:43;9.30;89.90
16863;DHT22;52193;48.216;-1.698;2023-03-03T07:27:13;9.30;89.80
16863;DHT22;52193;48.216;-1.698;2023-03-03T07:29:46;9.30;89.80
16863;DHT22;52193;48.216;-1.698;2023-03-03T07:32:23;9.20;89.80
16863;DHT22;52193;48.216;-1.698;2023-03-03T07:34:51;9.30;89.90
16863;DHT22;52193;48.216;-1.698;2023-03-03T07:37:29;9.30;89.90
16863;DHT22;52193;48.216;-1.698;2023-03-03T07:39:58;9.30;89.90
16863;DHT22;52193;48.216;-1.698;2023-03-03T07:42:27;9.30;89.80
16863;DHT22;52193;48.216;-1.698;2023-03-03T07:45:02;9.40;90.00
16863;DHT22;52193;48.216;-1.698;2023-03-03T07:47:45;9.50;90.00
16863;DHT22;52193;48.216;-1.698;2023-03-03T07:50:15;9.50;89.80
16863;DHT22;52193;48.216;-1.698;2023-03-03T07:52:49;9.60;90.00
16863;DHT22;52193;48.216;-1.698;2023-03-03T07:55:26;9.80;90.00
16863;DHT22;52193;48.216;-1.698;2023-03-03T07:57:57;9.80;90.00
16863;DHT22;52193;48.216;-1.698;2023-03-03T08:03:43;9.90;90.10
16863;DHT22;52193;48.216;-1.698;2023-03-03T08:06:30;10.00;89.10
16863;DHT22;52193;48.216;-1.698;2023-03-03T08:09:02;10.00;89.10
16863;DHT22;52193;48.216;-1.698;2023-03-03T08:11:43;10.00;89.10
16863;DHT22;52193;48.216;-1.698;2023-03-03T08:14:15;10.00;89.30
16863;DHT22;52193;48.216;-1.698;2023-03-03T08:16:46;10.00;89.40
16863;DHT22;52193;48.216;-1.698;2023-03-03T08:19:16;10.00;89.60
16863;DHT22;52193;48.216;-1.698;2023-03-03T08:21:43;10.00;89.70
16863;DHT22;52193;48.216;-1.698;2023-03-03T08:24:10;10.10;89.80
16863;DHT22;52193;48.216;-1.698;2023-03-03T08:26:37;10.10;89.70
16863;DHT22;52193;48.216;-1.698;2023-03-03T08:29:04;10.20;89.80
16863;DHT22;52193;48.216;-1.698;2023-03-03T08:31:31;10.30;89.80
16863;DHT22;52193;48.216;-1.698;2023-03-03T08:33:58;10.30;89.90
16863;DHT22;52193;48.216;-1.698;2023-03-03T08:36:26;10.40;89.80
16863;DHT22;52193;48.216;-1.698;2023-03-03T08:38:53;10.50;89.80
16863;DHT22;52193;48.216;-1.698;2023-03-03T08:41:20;10.50;89.80
16863;DHT22;52193;48.216;-1.698;2023-03-03T08:43:47;10.50;89.70
16863;DHT22;52193;48.216;-1.698;2023-03-03T08:46:14;10.60;89.90
16863;DHT22;52193;48.216;-1.698;2023-03-03T08:48:41;10.60;89.80
16863;DHT22;52193;48.216;-1.698;2023-03-03T08:51:08;10.60;89.80
16863;DHT22;52193;48.216;-1.698;2023-03-03T08:53:36;10.70;89.70
16863;DHT22;52193;48.216;-1.698;2023-03-03T08:56:03;10.60;89.80
16863;DHT22;52193;48.216;-1.698;2023-03-03T08:58:31;10.70;89.90
16863;DHT22;52193;48.216;-1.698;2023-03-03T09:00:58;10.80;90.00
16863;DHT22;52193;48.216;-1.698;2023-03-03T09:03:25;10.80;89.90
16863;DHT22;52193;48.216;-1.698;2023-03-03T09:05:52;10.80;89.80
16863;DHT22;52193;48.216;-1.698;2023-03-03T09:08:19;10.90;89.90
16863;DHT22;52193;48.216;-1.698;2023-03-03T09:10:47;10.90;90.00
16863;DHT22;52193;48.216;-1.698;2023-03-03T09:13:16;10.90;89.90
16863;DHT22;52193;48.216;-1.698;2023-03-03T09:15:43;11.00;89.90
16863;DHT22;52193;48.216;-1.698;2023-03-03T09:18:15;11.00;89.70
16863;DHT22;52193;48.216;-1.698;2023-03-03T09:20:43;11.10;89.80
16863;DHT22;52193;48.216;-1.698;2023-03-03T09:23:31;11.20;89.80
16863;DHT22;52193;48.216;-1.698;2023-03-03T09:26:21;11.10;89.80
16863;DHT22;52193;48.216;-1.698;2023-03-03T09:28:51;11.30;89.90
16863;DHT22;52193;48.216;-1.698;2023-03-03T09:31:24;11.30;89.70
16863;DHT22;52193;48.216;-1.698;2023-03-03T09:33:51;11.40;89.80
16863;DHT22;52193;48.216;-1.698;2023-03-03T09:36:24;11.50;89.70
16863;DHT22;52193;48.216;-1.698;2023-03-03T09:38:52;11.60;89.60
16863;DHT22;52193;48.216;-1.698;2023-03-03T09:45:00;11.90;89.40
16863;DHT22;52193;48.216;-1.698;2023-03-03T09:47:43;12.00;89.20
16863;DHT22;52193;48.216;-1.698;2023-03-03T09:50:25;12.10;89.10
16863;DHT22;52193;48.216;-1.698;2023-03-03T09:53:01;12.20;89.00
16863;DHT22;52193;48.216;-1.698;2023-03-03T09:55:40;12.30;88.90
16863;DHT22;52193;48.216;-1.698;2023-03-03T09:58:34;12.30;88.40
16863;DHT22;52193;48.216;-1.698;2023-03-03T10:01:34;12.30;88.50
16863;DHT22;52193;48.216;-1.698;2023-03-03T10:04:32;12.30;88.20
16863;DHT22;52193;48.216;-1.698;2023-03-03T10:07:18;12.40;88.20
16863;DHT22;52193;48.216;-1.698;2023-03-03T10:10:01;12.50;87.90
16863;DHT22;52193;48.216;-1.698;2023-03-03T10:12:34;12.60;87.60
16863;DHT22;52193;48.216;-1.698;2023-03-03T10:15:20;12.60;87.40
16863;DHT22;52193;48.216;-1.698;2023-03-03T10:17:53;12.60;87.40
16863;DHT22;52193;48.216;-1.698;2023-03-03T10:20:37;12.60;87.30
16863;DHT22;52193;48.216;-1.698;2023-03-03T10:23:17;12.60;87.70
16863;DHT22;52193;48.216;-1.698;2023-03-03T10:25:53;12.70;87.00
16863;DHT22;52193;48.216;-1.698;2023-03-03T10:29:05;12.80;86.80
16863;DHT22;52193;48.216;-1.698;2023-03-03T10:31:48;12.80;86.60
16863;DHT22;52193;48.216;-1.698;2023-03-03T10:34:35;12.80;86.50
16863;DHT22;52193;48.216;-1.698;2023-03-03T10:37:09;12.90;86.40
16863;DHT22;52193;48.216;-1.698;2023-03-03T10:39:51;13.00;86.20
16863;DHT22;52193;48.216;-1.698;2023-03-03T10:42:40;13.00;86.00
16863;DHT22;52193;48.216;-1.698;2023-03-03T10:45:40;13.00;85.90
16863;DHT22;52193;48.216;-1.698;2023-03-03T10:48:23;13.10;85.90
16863;DHT22;52193;48.216;-1.698;2023-03-03T10:50:59;13.10;85.70
16863;DHT22;52193;48.216;-1.698;2023-03-03T10:53:31;13.20;85.60
16863;DHT22;52193;48.216;-1.698;2023-03-03T10:56:21;13.20;85.40
16863;DHT22;52193;48.216;-1.698;2023-03-03T10:58:59;13.30;85.40
16863;DHT22;52193;48.216;-1.698;2023-03-03T11:01:41;13.40;85.30
16863;DHT22;52193;48.216;-1.698;2023-03-03T11:04:26;13.40;85.10
16863;DHT22;52193;48.216;-1.698;2023-03-03T11:07:02;13.50;84.90
16863;DHT22;52193;48.216;-1.698;2023-03-03T11:12:43;13.70;84.70
16863;DHT22;52193;48.216;-1.698;2023-03-03T11:15:25;13.70;84.50
16863;DHT22;52193;48.216;-1.698;2023-03-03T11:18:17;13.80;84.40
16863;DHT22;52193;48.216;-1.698;2023-03-03T11:20:54;13.90;84.30
16863;DHT22;52193;48.216;-1.698;2023-03-03T11:26:29;14.10;84.20
16863;DHT22;52193;48.216;-1.698;2023-03-03T11:29:10;14.20;84.60
16863;DHT22;52193;48.216;-1.698;2023-03-03T11:31:43;14.20;83.80
16863;DHT22;52193;48.216;-1.698;2023-03-03T11:34:20;14.30;83.60
16863;DHT22;52193;48.216;-1.698;2023-03-03T11:36:56;14.30;83.50
16863;DHT22;52193;48.216;-1.698;2023-03-03T11:39:28;14.40;83.30
16863;DHT22;52193;48.216;-1.698;2023-03-03T11:42:03;14.40;83.30
16863;DHT22;52193;48.216;-1.698;2023-03-03T11:44:36;14.50;83.20
16863;DHT22;52193;48.216;-1.698;2023-03-03T11:47:09;14.50;82.90
16863;DHT22;52193;48.216;-1.698;2023-03-03T11:49:45;14.60;82.70
16863;DHT22;52193;48.216;-1.698;2023-03-03T11:52:21;14.70;82.60
16863;DHT22;52193;48.216;-1.698;2023-03-03T11:54:55;14.80;82.30
16863;DHT22;52193;48.216;-1.698;2023-03-03T11:57:29;15.00;82.30
16863;DHT22;52193;48.216;-1.698;2023-03-03T12:00:18;15.10;82.00
16863;DHT22;52193;48.216;-1.698;2023-03-03T12:03:01;15.20;81.70
16863;DHT22;52193;48.216;-1.698;2023-03-03T12:05:41;15.20;81.20
16863;DHT22;52193;48.216;-1.698;2023-03-03T12:08:27;15.30;80.90
16863;DHT22;52193;48.216;-1.698;2023-03-03T12:11:04;15.40;80.60
16863;DHT22;52193;48.216;-1.698;2023-03-03T12:13:43;15.50;80.60
16863;DHT22;52193;48.216;-1.698;2023-03-03T12:16:18;15.60;80.50
16863;DHT22;52193;48.216;-1.698;2023-03-03T12:18:59;15.70;80.30
16863;DHT22;52193;48.216;-1.698;2023-03-03T12:21:40;15.80;79.80
16863;DHT22;52193;48.216;-1.698;2023-03-03T12:24:26;15.90;79.60
16863;DHT22;52193;48.216;-1.698;2023-03-03T12:27:06;16.00;79.30
16863;DHT22;52193;48.216;-1.698;2023-03-03T12:29:41;16.10;79.10
16863;DHT22;52193;48.216;-1.698;2023-03-03T12:32:20;16.20;79.10
16863;DHT22;52193;48.216;-1.698;2023-03-03T12:34:53;16.30;79.60
16863;DHT22;52193;48.216;-1.698;2023-03-03T12:37:46;16.30;78.60
16863;DHT22;52193;48.216;-1.698;2023-03-03T12:40:18;16.40;78.50
16863;DHT22;52193;48.216;-1.698;2023-03-03T12:43:05;16.50;78.20
16863;DHT22;52193;48.216;-1.698;2023-03-03T12:45:39;16.60;77.90
16863;DHT22;52193;48.216;-1.698;2023-03-03T12:48:15;16.70;77.80
16863;DHT22;52193;48.216;-1.698;2023-03-03T12:50:51;16.90;77.70
16863;DHT22;52193;48.216;-1.698;2023-03-03T12:53:40;17.00;77.40
16863;DHT22;52193;48.216;-1.698;2023-03-03T12:56:12;17.10;77.10
16863;DHT22;52193;48.216;-1.698;2023-03-03T12:58:48;17.10;77.20
16863;DHT22;52193;48.216;-1.698;2023-03-03T13:01:39;17.20;76.80
16863;DHT22;52193;48.216;-1.698;2023-03-03T13:04:12;17.30;76.60
16863;DHT22;52193;48.216;-1.698;2023-03-03T13:06:45;17.40;76.40
16863;DHT22;52193;48.216;-1.698;2023-03-03T13:09:21;17.40;76.00
16863;DHT22;52193;48.216;-1.698;2023-03-03T13:12:06;17.40;76.00
16863;DHT22;52193;48.216;-1.698;2023-03-03T13:14:42;17.60;76.10
16863;DHT22;52193;48.216;-1.698;2023-03-03T13:17:20;17.70;76.00
16863;DHT22;52193;48.216;-1.698;2023-03-03T13:19:53;18.00;75.80
16863;DHT22;52193;48.216;-1.698;2023-03-03T13:22:33;18.10;75.40
16863;DHT22;52193;48.216;-1.698;2023-03-03T13:25:07;18.40;75.40
16863;DHT22;52193;48.216;-1.698;2023-03-03T13:27:41;18.60;75.00
16863;DHT22;52193;48.216;-1.698;2023-03-03T13:30:18;18.80;74.50
16863;DHT22;52193;48.216;-1.698;2023-03-03T13:32:51;19.10;74.00
16863;DHT22;52193;48.216;-1.698;2023-03-03T13:35:30;19.40;73.70
16863;DHT22;52193;48.216;-1.698;2023-03-03T13:37:58;19.50;73.10
16863;DHT22;52193;48.216;-1.698;2023-03-03T13:40:38;19.90;72.90
16863;DHT22;52193;48.216;-1.698;2023-03-03T13:43:12;20.20;72.10
16863;DHT22;52193;48.216;-1.698;2023-03-03T13:45:50;20.50;71.70
16863;DHT22;52193;48.216;-1.698;2023-03-03T13:48:30;20.90;71.10
16863;DHT22;52193;48.216;-1.698;2023-03-03T13:51:06;21.40;70.60
16863;DHT22;52193;48.216;-1.698;2023-03-03T13:53:41;22.10;69.80
16863;DHT22;52193;48.216;-1.698;2023-03-03T13:56:21;22.40;68.90
16863;DHT22;52193;48.216;-1.698;2023-03-03T13:59:01;23.10;68.20
16863;DHT22;52193;48.216;-1.698;2023-03-03T14:01:38;23.90;67.50
16863;DHT22;52193;48.216;-1.698;2023-03-03T14:04:13;24.50;66.70
16863;DHT22;52193;48.216;-1.698;2023-03-03T14:06:46;25.10;65.10
16863;DHT22;52193;48.216;-1.698;2023-03-03T14:09:45;25.70;64.20
16863;DHT22;52193;48.216;-1.698;2023-03-03T14:12:21;26.40;62.90
16863;DHT22;52193;48.216;-1.698;2023-03-03T14:14:58;27.30;62.00
16863;DHT22;52193;48.216;-1.698;2023-03-03T14:17:33;28.00;60.60
16863;DHT22;52193;48.216;-1.698;2023-03-03T14:20:17;28.60;59.70
16863;DHT22;52193;48.216;-1.698;2023-03-03T14:22:46;29.20;58.50
16863;DHT22;52193;48.216;-1.698;2023-03-03T14:25:15;29.60;57.80
16863;DHT22;52193;48.216;-1.698;2023-03-03T14:28:00;30.40;56.90
16863;DHT22;52193;48.216;-1.698;2023-03-03T14:30:31;31.00;55.50
16863;DHT22;52193;48.216;-1.698;2023-03-03T14:33:24;31.70;55.00
16863;DHT22;52193;48.216;-1.698;2023-03-03T14:36:03;32.30;53.90
16863;DHT22;52193;48.216;-1.698;2023-03-03T14:38:46;32.90;53.30
16863;DHT22;52193;48.216;-1.698;2023-03-03T14:41:19;33.40;52.30
16863;DHT22;52193;48.216;-1.698;2023-03-03T14:43:56;34.00;51.90
16863;DHT22;52193;48.216;-1.698;2023-03-03T14:46:35;34.40;51.00
16863;DHT22;52193;48.216;-1.698;2023-03-03T14:49:12;34.60;50.10
16863;DHT22;52193;48.216;-1.698;2023-03-03T14:51:41;35.10;49.90
16863;DHT22;52193;48.216;-1.698;2023-03-03T14:54:21;35.80;49.40
16863;DHT22;52193;48.216;-1.698;2023-03-03T14:56:59;36.30;48.50
16863;DHT22;52193;48.216;-1.698;2023-03-03T14:59:27;37.00;48.00
16863;DHT22;52193;48.216;-1.698;2023-03-03T15:02:11;37.60;47.70
16863;DHT22;52193;48.216;-1.698;2023-03-03T15:05:12;38.10;46.60
16863;DHT22;52193;48.216;-1.698;2023-03-03T15:07:42;38.40;45.80
16863;DHT22;52193;48.216;-1.698;2023-03-03T15:10:10;39.10;46.00
16863;DHT22;52193;48.216;-1.698;2023-03-03T15:12:40;39.50;45.30
16863;DHT22;52193;48.216;-1.698;2023-03-03T15:15:16;39.90;44.60
16863;DHT22;52193;48.216;-1.698;2023-03-03T15:17:53;40.10;44.10
16863;DHT22;52193;48.216;-1.698;2023-03-03T15:20:31;40.20;43.90
16863;DHT22;52193;48.216;-1.698;2023-03-03T15:23:18;40.50;43.70
16863;DHT22;52193;48.216;-1.698;2023-03-03T15:25:57;40.60;43.30
16863;DHT22;52193;48.216;-1.698;2023-03-03T15:28:38;40.60;43.20
16863;DHT22;52193;48.216;-1.698;2023-03-03T15:31:15;40.90;43.00
16863;DHT22;52193;48.216;-1.698;2023-03-03T15:33:58;41.20;42.80
16863;DHT22;52193;48.216;-1.698;2023-03-03T15:36:35;41.30;42.40
16863;DHT22;52193;48.216;-1.698;2023-03-03T15:39:15;41.30;42.40
16863;DHT22;52193;48.216;-1.698;2023-03-03T15:41:55;41.20;42.20
16863;DHT22;52193;48.216;-1.698;2023-03-03T15:44:30;41.00;42.00
16863;DHT22;52193;48.216;-1.698;2023-03-03T15:47:20;41.00;41.80
16863;DHT22;52193;48.216;-1.698;2023-03-03T15:50:00;40.80;41.40
16863;DHT22;52193;48.216;-1.698;2023-03-03T15:52:42;40.70;41.50
16863;DHT22;52193;48.216;-1.698;2023-03-03T15:55:23;40.40;41.40
16863;DHT22;52193;48.216;-1.698;2023-03-03T15:58:02;40.10;41.50
16863;DHT22;52193;48.216;-1.698;2023-03-03T16:00:35;39.90;41.60
16863;DHT22;52193;48.216;-1.698;2023-03-03T16:03:10;39.40;41.70
16863;DHT22;52193;48.216;-1.698;2023-03-03T16:05:45;39.20;41.80
16863;DHT22;52193;48.216;-1.698;2023-03-03T16:08:20;38.70;41.90